sensor_id;sensor_type;location;lat;lon;timestamp;P1;durP1;ratioP1;P2;durP2;ratioP2
5823;SDS011;2938;52.254;12.988;2022-12-07T00:02:17;11.88;;;8.13;;
5823;SDS011;2938;52.254;12.988;2022-12-07T00:04:42;11.50;;;7.88;;
5823;SDS011;2938;52.254;12.988;2022-12-07T00:07:07;12.90;;;8.52;;
5823;SDS011;2938;52.254;12.988;2022-12-07T00:09:33;13.57;;;8.52;;
5823;SDS011;2938;52.254;12.988;2022-12-07T00:11:58;14.18;;;9.35;;
5823;SDS011;2938;52.254;12.988;2022-12-07T00:14:23;11.98;;;6.55;;
5823;SDS011;2938;52.254;12.988;2022-12-07T00:16:50;14.15;;;9.48;;
5823;SDS011;2938;52.254;12.988;2022-12-07T00:19:16;22.90;;;7.85;;
5823;SDS011;2938;52.254;12.988;2022-12-07T00:21:42;11.07;;;8.07;;
5823;SDS011;2938;52.254;12.988;2022-12-07T00:24:07;8.95;;;7.10;;
5823;SDS011;2938;52.254;12.988;2022-12-07T00:26:34;12.68;;;8.10;;
5823;SDS011;2938;52.254;12.988;2022-12-07T00:29:02;13.35;;;8.88;;
5823;SDS011;2938;52.254;12.988;2022-12-07T00:31:31;11.65;;;7.68;;
5823;SDS011;2938;52.254;12.988;2022-12-07T00:33:58;9.50;;;7.07;;
5823;SDS011;2938;52.254;12.988;2022-12-07T00:36:24;12.23;;;8.32;;
5823;SDS011;2938;52.254;12.988;2022-12-07T00:38:49;10.77;;;6.75;;
5823;SDS011;2938;52.254;12.988;2022-12-07T00:41:16;11.25;;;7.32;;
5823;SDS011;2938;52.254;12.988;2022-12-07T00:43:43;8.98;;;6.40;;
5823;SDS011;2938;52.254;12.988;2022-12-07T00:46:10;12.88;;;8.43;;
5823;SDS011;2938;52.254;12.988;2022-12-07T00:48:35;12.43;;;7.53;;
5823;SDS011;2938;52.254;12.988;2022-12-07T00:51:01;10.20;;;6.97;;
5823;SDS011;2938;52.254;12.988;2022-12-07T00:53:29;10.57;;;6.78;;
5823;SDS011;2938;52.254;12.988;2022-12-07T00:55:55;11.50;;;7.10;;
5823;SDS011;2938;52.254;12.988;2022-12-07T00:58:21;10.38;;;7.82;;
5823;SDS011;2938;52.254;12.988;2022-12-07T01:00:47;12.18;;;7.47;;
5823;SDS011;2938;52.254;12.988;2022-12-07T01:03:13;10.10;;;6.53;;
5823;SDS011;2938;52.254;12.988;2022-12-07T01:05:39;11.18;;;7.18;;
5823;SDS011;2938;52.254;12.988;2022-12-07T01:08:05;10.98;;;6.78;;
5823;SDS011;2938;52.254;12.988;2022-12-07T01:10:34;17.23;;;8.18;;
5823;SDS011;2938;52.254;12.988;2022-12-07T01:12:59;8.15;;;6.03;;
5823;SDS011;2938;52.254;12.988;2022-12-07T01:15:25;10.23;;;7.40;;
5823;SDS011;2938;52.254;12.988;2022-12-07T01:17:50;15.00;;;7.85;;
5823;SDS011;2938;52.254;12.988;2022-12-07T01:20:16;9.02;;;6.57;;
5823;SDS011;2938;52.254;12.988;2022-12-07T01:22:45;15.20;;;7.53;;
5823;SDS011;2938;52.254;12.988;2022-12-07T01:25:10;8.02;;;6.60;;
5823;SDS011;2938;52.254;12.988;2022-12-07T01:27:36;10.75;;;6.95;;
5823;SDS011;2938;52.254;12.988;2022-12-07T01:30:03;10.70;;;7.00;;
5823;SDS011;2938;52.254;12.988;2022-12-07T01:32:30;10.15;;;6.97;;
5823;SDS011;2938;52.254;12.988;2022-12-07T01:34:55;12.43;;;8.35;;
5823;SDS011;2938;52.254;12.988;2022-12-07T01:37:21;9.25;;;7.40;;
5823;SDS011;2938;52.254;12.988;2022-12-07T01:39:50;10.73;;;7.28;;
5823;SDS011;2938;52.254;12.988;2022-12-07T01:42:15;12.32;;;8.18;;
5823;SDS011;2938;52.254;12.988;2022-12-07T01:47:47;12.32;;;7.53;;
5823;SDS011;2938;52.254;12.988;2022-12-07T01:50:17;11.60;;;7.15;;
5823;SDS011;2938;52.254;12.988;2022-12-07T01:52:43;10.15;;;5.85;;
5823;SDS011;2938;52.254;12.988;2022-12-07T01:55:10;10.02;;;7.35;;
5823;SDS011;2938;52.254;12.988;2022-12-07T01:57:39;12.80;;;7.82;;
5823;SDS011;2938;52.254;12.988;2022-12-07T02:00:07;11.00;;;6.88;;
5823;SDS011;2938;52.254;12.988;2022-12-07T02:02:34;9.82;;;6.65;;
5823;SDS011;2938;52.254;12.988;2022-12-07T02:05:03;11.65;;;7.30;;
5823;SDS011;2938;52.254;12.988;2022-12-07T02:07:29;10.50;;;7.07;;
5823;SDS011;2938;52.254;12.988;2022-12-07T02:09:56;11.68;;;8.07;;
5823;SDS011;2938;52.254;12.988;2022-12-07T02:12:21;10.10;;;7.43;;
5823;SDS011;2938;52.254;12.988;2022-12-07T02:14:48;9.45;;;7.07;;
5823;SDS011;2938;52.254;12.988;2022-12-07T02:17:34;10.70;;;7.43;;
5823;SDS011;2938;52.254;12.988;2022-12-07T02:20:23;9.07;;;7.20;;
5823;SDS011;2938;52.254;12.988;2022-12-07T02:26:25;13.15;;;6.57;;
5823;SDS011;2938;52.254;12.988;2022-12-07T02:34:38;9.32;;;6.53;;
5823;SDS011;2938;52.254;12.988;2022-12-07T02:37:22;14.70;;;7.35;;
5823;SDS011;2938;52.254;12.988;2022-12-07T02:39:59;8.52;;;7.07;;
5823;SDS011;2938;52.254;12.988;2022-12-07T02:42:42;10.95;;;7.10;;
5823;SDS011;2938;52.254;12.988;2022-12-07T02:45:10;12.35;;;7.93;;
5823;SDS011;2938;52.254;12.988;2022-12-07T02:47:39;9.90;;;7.35;;
5823;SDS011;2938;52.254;12.988;2022-12-07T02:50:08;12.90;;;7.78;;
5823;SDS011;2938;52.254;12.988;2022-12-07T02:52:35;13.48;;;8.02;;
5823;SDS011;2938;52.254;12.988;2022-12-07T02:55:01;18.55;;;9.13;;
5823;SDS011;2938;52.254;12.988;2022-12-07T03:00:18;15.27;;;9.38;;
5823;SDS011;2938;52.254;12.988;2022-12-07T03:06:07;18.83;;;7.82;;
5823;SDS011;2938;52.254;12.988;2022-12-07T03:11:08;20.48;;;10.18;;
5823;SDS011;2938;52.254;12.988;2022-12-07T03:16:24;23.08;;;13.15;;
5823;SDS011;2938;52.254;12.988;2022-12-07T03:18:54;22.55;;;12.85;;
5823;SDS011;2938;52.254;12.988;2022-12-07T03:21:26;16.13;;;10.85;;
5823;SDS011;2938;52.254;12.988;2022-12-07T03:23:55;22.15;;;12.75;;
5823;SDS011;2938;52.254;12.988;2022-12-07T03:26:23;20.13;;;12.38;;
5823;SDS011;2938;52.254;12.988;2022-12-07T03:28:54;21.30;;;12.30;;
5823;SDS011;2938;52.254;12.988;2022-12-07T03:31:42;25.70;;;14.95;;
5823;SDS011;2938;52.254;12.988;2022-12-07T03:34:12;24.48;;;12.60;;
5823;SDS011;2938;52.254;12.988;2022-12-07T03:36:47;26.13;;;14.90;;
5823;SDS011;2938;52.254;12.988;2022-12-07T03:39:38;33.60;;;15.95;;
5823;SDS011;2938;52.254;12.988;2022-12-07T03:42:07;29.85;;;14.80;;
5823;SDS011;2938;52.254;12.988;2022-12-07T03:44:34;28.35;;;15.63;;
5823;SDS011;2938;52.254;12.988;2022-12-07T03:47:11;29.88;;;17.27;;
5823;SDS011;2938;52.254;12.988;2022-12-07T03:49:43;28.45;;;15.88;;
5823;SDS011;2938;52.254;12.988;2022-12-07T03:55:06;29.08;;;16.02;;
5823;SDS011;2938;52.254;12.988;2022-12-07T03:57:33;26.55;;;15.45;;
5823;SDS011;2938;52.254;12.988;2022-12-07T04:00:00;29.75;;;17.60;;
5823;SDS011;2938;52.254;12.988;2022-12-07T04:02:27;32.92;;;18.10;;
5823;SDS011;2938;52.254;12.988;2022-12-07T04:04:52;29.30;;;16.92;;
5823;SDS011;2938;52.254;12.988;2022-12-07T04:07:18;33.80;;;18.63;;
5823;SDS011;2938;52.254;12.988;2022-12-07T04:09:44;32.10;;;19.55;;
5823;SDS011;2938;52.254;12.988;2022-12-07T04:12:09;25.17;;;15.48;;
5823;SDS011;2938;52.254;12.988;2022-12-07T04:14:38;31.88;;;19.55;;
5823;SDS011;2938;52.254;12.988;2022-12-07T04:17:03;32.45;;;17.90;;
5823;SDS011;2938;52.254;12.988;2022-12-07T04:19:30;33.42;;;19.23;;
5823;SDS011;2938;52.254;12.988;2022-12-07T04:21:57;29.02;;;17.63;;
5823;SDS011;2938;52.254;12.988;2022-12-07T04:24:24;31.65;;;19.17;;
5823;SDS011;2938;52.254;12.988;2022-12-07T04:26:50;30.90;;;18.90;;
5823;SDS011;2938;52.254;12.988;2022-12-07T04:29:16;36.53;;;20.25;;
5823;SDS011;2938;52.254;12.988;2022-12-07T04:31:42;36.88;;;20.80;;
5823;SDS011;2938;52.254;12.988;2022-12-07T04:34:08;31.70;;;18.92;;
5823;SDS011;2938;52.254;12.988;2022-12-07T04:36:33;33.38;;;20.95;;
5823;SDS011;2938;52.254;12.988;2022-12-07T04:38:59;34.55;;;20.08;;
5823;SDS011;2938;52.254;12.988;2022-12-07T04:41:33;35.15;;;19.77;;
5823;SDS011;2938;52.254;12.988;2022-12-07T04:44:00;41.70;;;21.85;;
5823;SDS011;2938;52.254;12.988;2022-12-07T04:46:30;36.45;;;21.08;;
5823;SDS011;2938;52.254;12.988;2022-12-07T04:48:56;47.95;;;20.45;;
5823;SDS011;2938;52.254;12.988;2022-12-07T04:51:23;36.65;;;22.48;;
5823;SDS011;2938;52.254;12.988;2022-12-07T04:53:50;34.13;;;19.70;;
5823;SDS011;2938;52.254;12.988;2022-12-07T04:56:30;26.53;;;16.20;;
5823;SDS011;2938;52.254;12.988;2022-12-07T04:59:00;41.45;;;22.30;;
5823;SDS011;2938;52.254;12.988;2022-12-07T05:01:26;38.42;;;19.80;;
5823;SDS011;2938;52.254;12.988;2022-12-07T05:03:51;40.92;;;20.58;;
5823;SDS011;2938;52.254;12.988;2022-12-07T05:06:17;36.90;;;19.63;;
5823;SDS011;2938;52.254;12.988;2022-12-07T05:08:42;42.22;;;22.73;;
5823;SDS011;2938;52.254;12.988;2022-12-07T05:11:13;43.03;;;23.80;;
5823;SDS011;2938;52.254;12.988;2022-12-07T05:14:00;39.63;;;23.30;;
5823;SDS011;2938;52.254;12.988;2022-12-07T05:16:26;46.38;;;24.15;;
5823;SDS011;2938;52.254;12.988;2022-12-07T05:18:51;43.10;;;24.60;;
5823;SDS011;2938;52.254;12.988;2022-12-07T05:21:17;48.95;;;23.80;;
5823;SDS011;2938;52.254;12.988;2022-12-07T05:23:49;39.15;;;22.50;;
5823;SDS011;2938;52.254;12.988;2022-12-07T05:26:14;39.85;;;21.60;;
5823;SDS011;2938;52.254;12.988;2022-12-07T05:28:40;37.00;;;22.73;;
5823;SDS011;2938;52.254;12.988;2022-12-07T05:31:05;44.22;;;21.55;;
5823;SDS011;2938;52.254;12.988;2022-12-07T05:33:31;40.15;;;23.05;;
5823;SDS011;2938;52.254;12.988;2022-12-07T05:35:59;44.10;;;24.90;;
5823;SDS011;2938;52.254;12.988;2022-12-07T05:38:30;38.15;;;20.83;;
5823;SDS011;2938;52.254;12.988;2022-12-07T05:40:55;46.53;;;24.23;;
5823;SDS011;2938;52.254;12.988;2022-12-07T05:43:26;41.95;;;22.35;;
5823;SDS011;2938;52.254;12.988;2022-12-07T05:45:51;48.88;;;23.48;;
5823;SDS011;2938;52.254;12.988;2022-12-07T05:48:17;39.60;;;23.20;;
5823;SDS011;2938;52.254;12.988;2022-12-07T05:50:42;41.47;;;24.33;;
5823;SDS011;2938;52.254;12.988;2022-12-07T05:53:10;39.80;;;22.70;;
5823;SDS011;2938;52.254;12.988;2022-12-07T05:55:36;40.60;;;22.45;;
5823;SDS011;2938;52.254;12.988;2022-12-07T05:58:01;39.13;;;22.55;;
5823;SDS011;2938;52.254;12.988;2022-12-07T06:00:45;38.13;;;21.63;;
5823;SDS011;2938;52.254;12.988;2022-12-07T06:03:10;43.75;;;24.40;;
5823;SDS011;2938;52.254;12.988;2022-12-07T06:05:36;36.58;;;22.10;;
5823;SDS011;2938;52.254;12.988;2022-12-07T06:08:01;38.47;;;21.75;;
5823;SDS011;2938;52.254;12.988;2022-12-07T06:10:26;44.08;;;23.17;;
5823;SDS011;2938;52.254;12.988;2022-12-07T06:12:52;38.33;;;22.67;;
5823;SDS011;2938;52.254;12.988;2022-12-07T06:15:17;42.35;;;21.95;;
5823;SDS011;2938;52.254;12.988;2022-12-07T06:17:50;43.08;;;22.63;;
5823;SDS011;2938;52.254;12.988;2022-12-07T06:20:18;43.63;;;23.48;;
5823;SDS011;2938;52.254;12.988;2022-12-07T06:22:50;38.60;;;23.38;;
5823;SDS011;2938;52.254;12.988;2022-12-07T06:25:15;28.00;;;16.13;;
5823;SDS011;2938;52.254;12.988;2022-12-07T06:27:42;42.80;;;23.05;;
5823;SDS011;2938;52.254;12.988;2022-12-07T06:30:08;42.97;;;24.42;;
5823;SDS011;2938;52.254;12.988;2022-12-07T06:32:35;42.85;;;23.58;;
5823;SDS011;2938;52.254;12.988;2022-12-07T06:35:01;43.85;;;24.73;;
5823;SDS011;2938;52.254;12.988;2022-12-07T06:37:26;41.97;;;25.23;;
5823;SDS011;2938;52.254;12.988;2022-12-07T06:39:52;45.25;;;23.42;;
5823;SDS011;2938;52.254;12.988;2022-12-07T06:42:17;40.85;;;25.65;;
5823;SDS011;2938;52.254;12.988;2022-12-07T06:44:42;45.83;;;24.77;;
5823;SDS011;2938;52.254;12.988;2022-12-07T06:47:08;41.40;;;23.83;;
5823;SDS011;2938;52.254;12.988;2022-12-07T06:49:34;49.13;;;24.48;;
5823;SDS011;2938;52.254;12.988;2022-12-07T06:51:59;45.97;;;24.52;;
5823;SDS011;2938;52.254;12.988;2022-12-07T06:54:25;54.58;;;25.85;;
5823;SDS011;2938;52.254;12.988;2022-12-07T06:56:50;43.92;;;24.25;;
5823;SDS011;2938;52.254;12.988;2022-12-07T06:59:15;45.15;;;25.15;;
5823;SDS011;2938;52.254;12.988;2022-12-07T07:01:41;40.28;;;25.52;;
5823;SDS011;2938;52.254;12.988;2022-12-07T07:04:06;50.40;;;24.15;;
5823;SDS011;2938;52.254;12.988;2022-12-07T07:06:32;44.90;;;25.80;;
5823;SDS011;2938;52.254;12.988;2022-12-07T07:08:57;43.40;;;24.83;;
5823;SDS011;2938;52.254;12.988;2022-12-07T07:11:22;44.15;;;25.50;;
5823;SDS011;2938;52.254;12.988;2022-12-07T07:13:48;44.17;;;23.92;;
5823;SDS011;2938;52.254;12.988;2022-12-07T07:16:13;42.63;;;24.45;;
5823;SDS011;2938;52.254;12.988;2022-12-07T07:18:41;43.15;;;26.00;;
5823;SDS011;2938;52.254;12.988;2022-12-07T07:21:07;38.50;;;22.75;;
5823;SDS011;2938;52.254;12.988;2022-12-07T07:23:33;43.45;;;24.73;;
5823;SDS011;2938;52.254;12.988;2022-12-07T07:25:58;45.40;;;24.83;;
5823;SDS011;2938;52.254;12.988;2022-12-07T07:28:42;40.63;;;22.40;;
5823;SDS011;2938;52.254;12.988;2022-12-07T07:31:09;37.53;;;23.92;;
5823;SDS011;2938;52.254;12.988;2022-12-07T07:34:01;40.20;;;24.95;;
5823;SDS011;2938;52.254;12.988;2022-12-07T07:36:29;46.33;;;23.48;;
5823;SDS011;2938;52.254;12.988;2022-12-07T07:45:33;43.17;;;21.60;;
5823;SDS011;2938;52.254;12.988;2022-12-07T07:48:06;38.95;;;21.50;;
5823;SDS011;2938;52.254;12.988;2022-12-07T07:50:40;38.35;;;22.08;;
5823;SDS011;2938;52.254;12.988;2022-12-07T07:53:18;37.72;;;22.05;;
5823;SDS011;2938;52.254;12.988;2022-12-07T07:55:53;31.63;;;20.08;;
5823;SDS011;2938;52.254;12.988;2022-12-07T07:58:38;38.70;;;20.60;;
5823;SDS011;2938;52.254;12.988;2022-12-07T08:01:08;34.75;;;20.30;;
5823;SDS011;2938;52.254;12.988;2022-12-07T08:03:34;31.80;;;18.23;;
5823;SDS011;2938;52.254;12.988;2022-12-07T08:06:45;30.33;;;18.17;;
5823;SDS011;2938;52.254;12.988;2022-12-07T08:09:10;34.40;;;18.35;;
5823;SDS011;2938;52.254;12.988;2022-12-07T08:11:38;28.73;;;16.65;;
5823;SDS011;2938;52.254;12.988;2022-12-07T08:17:39;31.40;;;17.30;;
5823;SDS011;2938;52.254;12.988;2022-12-07T08:20:25;33.67;;;17.33;;
5823;SDS011;2938;52.254;12.988;2022-12-07T08:23:04;33.97;;;16.52;;
5823;SDS011;2938;52.254;12.988;2022-12-07T08:25:31;26.35;;;15.52;;
5823;SDS011;2938;52.254;12.988;2022-12-07T08:27:56;29.17;;;15.30;;
5823;SDS011;2938;52.254;12.988;2022-12-07T08:30:26;20.48;;;13.07;;
5823;SDS011;2938;52.254;12.988;2022-12-07T08:33:14;18.55;;;11.63;;
5823;SDS011;2938;52.254;12.988;2022-12-07T08:35:52;21.75;;;12.23;;
5823;SDS011;2938;52.254;12.988;2022-12-07T08:38:17;23.05;;;12.13;;
5823;SDS011;2938;52.254;12.988;2022-12-07T08:40:58;16.98;;;11.63;;
5823;SDS011;2938;52.254;12.988;2022-12-07T08:44:00;22.55;;;13.57;;
5823;SDS011;2938;52.254;12.988;2022-12-07T08:52:29;23.00;;;14.13;;
5823;SDS011;2938;52.254;12.988;2022-12-07T08:55:26;24.25;;;13.02;;
5823;SDS011;2938;52.254;12.988;2022-12-07T08:58:03;21.00;;;11.93;;
5823;SDS011;2938;52.254;12.988;2022-12-07T09:00:34;21.05;;;11.48;;
5823;SDS011;2938;52.254;12.988;2022-12-07T09:03:02;19.55;;;10.65;;
5823;SDS011;2938;52.254;12.988;2022-12-07T09:05:42;15.65;;;9.27;;
5823;SDS011;2938;52.254;12.988;2022-12-07T09:08:18;11.93;;;7.22;;
5823;SDS011;2938;52.254;12.988;2022-12-07T09:10:43;13.80;;;7.97;;
5823;SDS011;2938;52.254;12.988;2022-12-07T09:13:11;12.55;;;6.43;;
5823;SDS011;2938;52.254;12.988;2022-12-07T09:16:18;11.95;;;7.00;;
5823;SDS011;2938;52.254;12.988;2022-12-07T09:18:45;11.13;;;6.30;;
5823;SDS011;2938;52.254;12.988;2022-12-07T09:27:06;6.65;;;3.97;;
5823;SDS011;2938;52.254;12.988;2022-12-07T09:29:31;9.23;;;5.22;;
5823;SDS011;2938;52.254;12.988;2022-12-07T09:31:56;8.30;;;4.88;;
5823;SDS011;2938;52.254;12.988;2022-12-07T09:34:22;10.65;;;4.22;;
5823;SDS011;2938;52.254;12.988;2022-12-07T09:36:48;9.85;;;4.68;;
5823;SDS011;2938;52.254;12.988;2022-12-07T09:39:13;6.50;;;5.15;;
5823;SDS011;2938;52.254;12.988;2022-12-07T09:41:39;6.82;;;4.65;;
5823;SDS011;2938;52.254;12.988;2022-12-07T09:44:06;6.22;;;4.13;;
5823;SDS011;2938;52.254;12.988;2022-12-07T09:46:39;8.02;;;5.28;;
5823;SDS011;2938;52.254;12.988;2022-12-07T09:49:08;8.52;;;4.03;;
5823;SDS011;2938;52.254;12.988;2022-12-07T09:51:39;6.82;;;4.35;;
5823;SDS011;2938;52.254;12.988;2022-12-07T09:54:05;8.85;;;4.57;;
5823;SDS011;2938;52.254;12.988;2022-12-07T09:56:30;6.68;;;5.05;;
5823;SDS011;2938;52.254;12.988;2022-12-07T09:58:59;4.82;;;4.15;;
5823;SDS011;2938;52.254;12.988;2022-12-07T10:01:27;9.70;;;4.78;;
5823;SDS011;2938;52.254;12.988;2022-12-07T10:03:55;8.77;;;5.38;;
5823;SDS011;2938;52.254;12.988;2022-12-07T10:06:28;3.42;;;2.85;;
5823;SDS011;2938;52.254;12.988;2022-12-07T10:08:53;5.72;;;3.65;;
5823;SDS011;2938;52.254;12.988;2022-12-07T10:11:19;6.22;;;3.95;;
5823;SDS011;2938;52.254;12.988;2022-12-07T10:13:46;6.75;;;4.70;;
5823;SDS011;2938;52.254;12.988;2022-12-07T10:19:18;7.80;;;5.00;;
5823;SDS011;2938;52.254;12.988;2022-12-07T10:21:59;8.75;;;4.30;;
5823;SDS011;2938;52.254;12.988;2022-12-07T10:24:27;9.10;;;4.60;;
5823;SDS011;2938;52.254;12.988;2022-12-07T10:26:53;13.18;;;3.97;;
5823;SDS011;2938;52.254;12.988;2022-12-07T10:29:20;5.85;;;3.15;;
5823;SDS011;2938;52.254;12.988;2022-12-07T10:34:46;8.95;;;4.68;;
5823;SDS011;2938;52.254;12.988;2022-12-07T10:39:48;9.77;;;4.15;;
5823;SDS011;2938;52.254;12.988;2022-12-07T10:42:22;4.47;;;3.95;;
5823;SDS011;2938;52.254;12.988;2022-12-07T10:47:38;7.47;;;4.63;;
5823;SDS011;2938;52.254;12.988;2022-12-07T10:51:00;5.70;;;4.45;;
5823;SDS011;2938;52.254;12.988;2022-12-07T11:04:40;5.82;;;3.90;;
5823;SDS011;2938;52.254;12.988;2022-12-07T11:07:51;17.15;;;6.53;;
5823;SDS011;2938;52.254;12.988;2022-12-07T11:19:10;8.73;;;4.93;;
5823;SDS011;2938;52.254;12.988;2022-12-07T11:22:09;6.97;;;4.82;;
5823;SDS011;2938;52.254;12.988;2022-12-07T11:24:55;6.97;;;4.68;;
5823;SDS011;2938;52.254;12.988;2022-12-07T11:30:23;7.45;;;4.43;;
5823;SDS011;2938;52.254;12.988;2022-12-07T11:38:17;6.35;;;4.03;;
5823;SDS011;2938;52.254;12.988;2022-12-07T11:40:48;10.82;;;4.70;;
5823;SDS011;2938;52.254;12.988;2022-12-07T11:46:05;7.35;;;4.10;;
5823;SDS011;2938;52.254;12.988;2022-12-07T11:48:38;10.40;;;4.30;;
5823;SDS011;2938;52.254;12.988;2022-12-07T11:51:16;9.63;;;4.10;;
5823;SDS011;2938;52.254;12.988;2022-12-07T11:53:47;6.15;;;4.35;;
5823;SDS011;2938;52.254;12.988;2022-12-07T11:56:15;6.38;;;4.75;;
5823;SDS011;2938;52.254;12.988;2022-12-07T12:03:49;4.75;;;3.58;;
5823;SDS011;2938;52.254;12.988;2022-12-07T12:06:16;6.43;;;3.97;;
5823;SDS011;2938;52.254;12.988;2022-12-07T12:11:47;5.53;;;3.40;;
5823;SDS011;2938;52.254;12.988;2022-12-07T12:23:00;7.80;;;3.70;;
5823;SDS011;2938;52.254;12.988;2022-12-07T12:25:30;5.22;;;3.50;;
5823;SDS011;2938;52.254;12.988;2022-12-07T12:28:00;5.88;;;3.40;;
5823;SDS011;2938;52.254;12.988;2022-12-07T12:33:02;8.15;;;2.92;;
5823;SDS011;2938;52.254;12.988;2022-12-07T12:35:31;6.70;;;3.00;;
5823;SDS011;2938;52.254;12.988;2022-12-07T12:40:52;7.88;;;3.78;;
5823;SDS011;2938;52.254;12.988;2022-12-07T12:48:55;15.48;;;5.78;;
5823;SDS011;2938;52.254;12.988;2022-12-07T12:51:37;5.78;;;4.63;;
5823;SDS011;2938;52.254;12.988;2022-12-07T12:54:05;15.63;;;4.03;;
5823;SDS011;2938;52.254;12.988;2022-12-07T12:56:40;11.40;;;3.28;;
5823;SDS011;2938;52.254;12.988;2022-12-07T12:59:21;12.38;;;3.72;;
5823;SDS011;2938;52.254;12.988;2022-12-07T13:01:53;10.30;;;3.05;;
5823;SDS011;2938;52.254;12.988;2022-12-07T13:04:48;10.45;;;3.08;;
5823;SDS011;2938;52.254;12.988;2022-12-07T13:10:32;9.18;;;3.30;;
5823;SDS011;2938;52.254;12.988;2022-12-07T13:13:02;5.68;;;3.50;;
5823;SDS011;2938;52.254;12.988;2022-12-07T13:31:47;6.82;;;3.50;;
5823;SDS011;2938;52.254;12.988;2022-12-07T13:36:59;3.87;;;3.43;;
5823;SDS011;2938;52.254;12.988;2022-12-07T13:39:25;10.98;;;5.05;;
5823;SDS011;2938;52.254;12.988;2022-12-07T13:41:55;13.80;;;4.30;;
5823;SDS011;2938;52.254;12.988;2022-12-07T13:44:23;8.63;;;5.57;;
5823;SDS011;2938;52.254;12.988;2022-12-07T13:46:52;11.70;;;4.05;;
5823;SDS011;2938;52.254;12.988;2022-12-07T13:52:13;6.97;;;5.72;;
5823;SDS011;2938;52.254;12.988;2022-12-07T13:57:29;13.70;;;4.97;;
5823;SDS011;2938;52.254;12.988;2022-12-07T13:59:55;6.00;;;4.05;;
5823;SDS011;2938;52.254;12.988;2022-12-07T14:02:22;5.93;;;4.57;;
5823;SDS011;2938;52.254;12.988;2022-12-07T14:04:51;7.82;;;4.72;;
5823;SDS011;2938;52.254;12.988;2022-12-07T14:07:27;6.63;;;5.13;;
5823;SDS011;2938;52.254;12.988;2022-12-07T14:10:00;9.05;;;4.35;;
5823;SDS011;2938;52.254;12.988;2022-12-07T14:12:28;7.97;;;4.75;;
5823;SDS011;2938;52.254;12.988;2022-12-07T14:14:55;8.80;;;4.90;;
5823;SDS011;2938;52.254;12.988;2022-12-07T14:17:25;16.23;;;5.00;;
5823;SDS011;2938;52.254;12.988;2022-12-07T14:19:52;12.00;;;5.47;;
5823;SDS011;2938;52.254;12.988;2022-12-07T14:22:24;7.65;;;5.03;;
5823;SDS011;2938;52.254;12.988;2022-12-07T14:27:47;4.47;;;3.83;;
5823;SDS011;2938;52.254;12.988;2022-12-07T14:30:16;5.45;;;4.55;;
5823;SDS011;2938;52.254;12.988;2022-12-07T14:32:42;6.57;;;4.68;;
5823;SDS011;2938;52.254;12.988;2022-12-07T14:35:13;10.50;;;5.82;;
5823;SDS011;2938;52.254;12.988;2022-12-07T14:37:41;6.65;;;3.60;;
5823;SDS011;2938;52.254;12.988;2022-12-07T14:40:28;7.50;;;3.78;;
5823;SDS011;2938;52.254;12.988;2022-12-07T14:43:02;9.07;;;3.72;;
5823;SDS011;2938;52.254;12.988;2022-12-07T14:45:30;8.15;;;4.03;;
5823;SDS011;2938;52.254;12.988;2022-12-07T14:47:55;12.23;;;4.03;;
5823;SDS011;2938;52.254;12.988;2022-12-07T14:50:21;11.07;;;4.50;;
5823;SDS011;2938;52.254;12.988;2022-12-07T14:53:30;5.90;;;4.35;;
5823;SDS011;2938;52.254;12.988;2022-12-07T14:55:39;8.63;;;3.97;;
5823;SDS011;2938;52.254;12.988;2022-12-07T14:58:04;8.43;;;4.65;;
5823;SDS011;2938;52.254;12.988;2022-12-07T15:00:30;10.98;;;4.90;;
5823;SDS011;2938;52.254;12.988;2022-12-07T15:02:56;11.35;;;3.95;;
5823;SDS011;2938;52.254;12.988;2022-12-07T15:05:24;7.38;;;4.00;;
5823;SDS011;2938;52.254;12.988;2022-12-07T15:07:50;14.20;;;4.95;;
5823;SDS011;2938;52.254;12.988;2022-12-07T15:10:26;7.28;;;4.93;;
5823;SDS011;2938;52.254;12.988;2022-12-07T15:12:57;8.80;;;4.03;;
5823;SDS011;2938;52.254;12.988;2022-12-07T15:15:46;7.97;;;4.40;;
5823;SDS011;2938;52.254;12.988;2022-12-07T15:18:13;11.77;;;4.60;;
5823;SDS011;2938;52.254;12.988;2022-12-07T15:20:39;7.20;;;4.82;;
5823;SDS011;2938;52.254;12.988;2022-12-07T15:23:07;17.48;;;5.32;;
5823;SDS011;2938;52.254;12.988;2022-12-07T15:25:33;10.27;;;4.88;;
5823;SDS011;2938;52.254;12.988;2022-12-07T15:27:59;11.13;;;5.38;;
5823;SDS011;2938;52.254;12.988;2022-12-07T15:30:27;7.40;;;5.00;;
5823;SDS011;2938;52.254;12.988;2022-12-07T15:32:53;7.50;;;6.13;;
5823;SDS011;2938;52.254;12.988;2022-12-07T15:35:19;10.32;;;4.60;;
5823;SDS011;2938;52.254;12.988;2022-12-07T15:37:50;8.23;;;5.65;;
5823;SDS011;2938;52.254;12.988;2022-12-07T15:40:19;15.57;;;5.32;;
5823;SDS011;2938;52.254;12.988;2022-12-07T15:42:45;12.82;;;5.32;;
5823;SDS011;2938;52.254;12.988;2022-12-07T15:45:28;12.13;;;5.53;;
5823;SDS011;2938;52.254;12.988;2022-12-07T15:47:53;7.63;;;4.30;;
5823;SDS011;2938;52.254;12.988;2022-12-07T15:50:20;12.32;;;4.20;;
5823;SDS011;2938;52.254;12.988;2022-12-07T15:52:46;7.72;;;5.43;;
5823;SDS011;2938;52.254;12.988;2022-12-07T15:55:11;10.18;;;5.53;;
5823;SDS011;2938;52.254;12.988;2022-12-07T15:57:37;15.95;;;5.47;;
5823;SDS011;2938;52.254;12.988;2022-12-07T16:00:07;14.07;;;4.60;;
5823;SDS011;2938;52.254;12.988;2022-12-07T16:02:37;13.52;;;5.75;;
5823;SDS011;2938;52.254;12.988;2022-12-07T16:05:02;13.30;;;5.63;;
5823;SDS011;2938;52.254;12.988;2022-12-07T16:07:28;12.23;;;6.03;;
5823;SDS011;2938;52.254;12.988;2022-12-07T16:09:54;7.15;;;4.55;;
5823;SDS011;2938;52.254;12.988;2022-12-07T16:12:22;9.98;;;4.55;;
5823;SDS011;2938;52.254;12.988;2022-12-07T16:14:50;11.02;;;5.50;;
5823;SDS011;2938;52.254;12.988;2022-12-07T16:17:15;8.68;;;4.05;;
5823;SDS011;2938;52.254;12.988;2022-12-07T16:19:40;8.30;;;5.63;;
5823;SDS011;2938;52.254;12.988;2022-12-07T16:22:06;9.43;;;5.32;;
5823;SDS011;2938;52.254;12.988;2022-12-07T16:24:31;11.40;;;5.85;;
5823;SDS011;2938;52.254;12.988;2022-12-07T16:26:57;14.00;;;5.53;;
5823;SDS011;2938;52.254;12.988;2022-12-07T16:29:30;8.80;;;5.18;;
5823;SDS011;2938;52.254;12.988;2022-12-07T16:31:55;19.10;;;4.82;;
5823;SDS011;2938;52.254;12.988;2022-12-07T16:34:20;18.35;;;5.38;;
5823;SDS011;2938;52.254;12.988;2022-12-07T16:36:46;10.65;;;5.30;;
5823;SDS011;2938;52.254;12.988;2022-12-07T16:39:11;9.85;;;4.90;;
5823;SDS011;2938;52.254;12.988;2022-12-07T16:41:36;7.70;;;5.30;;
5823;SDS011;2938;52.254;12.988;2022-12-07T16:44:03;6.60;;;4.85;;
5823;SDS011;2938;52.254;12.988;2022-12-07T16:46:31;5.97;;;4.35;;
5823;SDS011;2938;52.254;12.988;2022-12-07T16:48:57;21.13;;;6.40;;
5823;SDS011;2938;52.254;12.988;2022-12-07T16:51:23;4.80;;;4.18;;
5823;SDS011;2938;52.254;12.988;2022-12-07T16:53:48;6.95;;;4.85;;
5823;SDS011;2938;52.254;12.988;2022-12-07T16:56:14;10.52;;;4.55;;
5823;SDS011;2938;52.254;12.988;2022-12-07T16:58:41;9.50;;;5.22;;
5823;SDS011;2938;52.254;12.988;2022-12-07T17:01:11;10.52;;;5.15;;
5823;SDS011;2938;52.254;12.988;2022-12-07T17:03:37;14.77;;;4.50;;
5823;SDS011;2938;52.254;12.988;2022-12-07T17:06:02;6.82;;;4.90;;
5823;SDS011;2938;52.254;12.988;2022-12-07T17:08:27;10.73;;;5.18;;
5823;SDS011;2938;52.254;12.988;2022-12-07T17:10:53;12.95;;;4.53;;
5823;SDS011;2938;52.254;12.988;2022-12-07T17:13:18;8.80;;;4.80;;
5823;SDS011;2938;52.254;12.988;2022-12-07T17:16:03;11.00;;;4.70;;
5823;SDS011;2938;52.254;12.988;2022-12-07T17:18:31;13.75;;;5.07;;
5823;SDS011;2938;52.254;12.988;2022-12-07T17:21:02;10.95;;;4.50;;
5823;SDS011;2938;52.254;12.988;2022-12-07T17:23:32;11.63;;;4.28;;
5823;SDS011;2938;52.254;12.988;2022-12-07T17:26:11;8.25;;;3.83;;
5823;SDS011;2938;52.254;12.988;2022-12-07T17:28:39;8.48;;;5.03;;
5823;SDS011;2938;52.254;12.988;2022-12-07T17:31:05;16.38;;;4.90;;
5823;SDS011;2938;52.254;12.988;2022-12-07T17:33:32;5.75;;;3.45;;